createdAt,value
2022-12-06T00:02:27.606Z,98800.50
2022-12-06T00:05:33.754Z,98796.38
2022-12-06T00:08:36.958Z,98795.56
2022-12-06T00:11:39.727Z,98796.69
2022-12-06T00:14:42.656Z,98793.78
2022-12-06T00:17:46.750Z,98805.13
2022-12-06T00:20:49.467Z,98796.47
2022-12-06T00:23:53.556Z,98797.31
2022-12-06T00:26:56.376Z,98792.72
2022-12-06T00:29:59.314Z,98787.28
2022-12-06T00:33:03.739Z,98794.38
2022-12-06T00:36:08.394Z,98786.56
2022-12-06T00:39:13.428Z,98783.38
2022-12-06T00:42:16.514Z,98775.66
2022-12-06T00:45:19.213Z,98776.16
2022-12-06T00:48:24.182Z,98777.94
2022-12-06T00:51:28.659Z,98781.50
2022-12-06T00:54:31.640Z,98786.66
2022-12-06T00:57:35.057Z,98783.38
2022-12-06T01:00:37.773Z,98790.69
2022-12-06T01:03:42.547Z,98790.56
2022-12-06T01:06:45.260Z,98781.63
2022-12-06T01:09:48.051Z,98777.03
2022-12-06T01:12:50.652Z,98773.78
2022-12-06T01:15:54.263Z,98779.00
2022-12-06T01:19:01.165Z,98785.78
2022-12-06T01:22:03.797Z,98791.19
2022-12-06T01:25:07.263Z,98782.28
2022-12-06T01:28:09.943Z,98785.75
2022-12-06T01:31:13.471Z,98780.88
2022-12-06T01:34:18.859Z,98783.03
2022-12-06T01:37:22.013Z,98787.88
2022-12-06T01:40:24.837Z,98781.88
2022-12-06T01:43:35.396Z,98769.13
2022-12-06T01:46:42.100Z,98773.72
2022-12-06T01:49:48.568Z,98768.56
2022-12-06T01:52:55.099Z,98770.97
2022-12-06T01:55:58.111Z,98768.81
2022-12-06T01:59:01.427Z,98769.03
2022-12-06T02:02:04.472Z,98768.78
2022-12-06T02:05:09.603Z,98766.06
2022-12-06T02:08:13.031Z,98769.84
2022-12-06T02:11:16.077Z,98764.97
2022-12-06T02:14:21.319Z,98765.25
2022-12-06T02:17:35.848Z,98751.44
2022-12-06T02:20:43.133Z,98757.38
2022-12-06T02:24:15.691Z,98747.88
2022-12-06T02:27:33.528Z,98753.31
2022-12-06T02:30:41.476Z,98757.06
2022-12-06T02:33:48.548Z,98757.88
2022-12-06T02:36:57.014Z,98751.66
2022-12-06T02:40:03.920Z,98743.50
2022-12-06T02:43:10.034Z,98734.56
2022-12-06T02:46:15.414Z,98740.28
2022-12-06T02:49:19.343Z,98738.88
2022-12-06T02:52:25.335Z,98737.28
2022-12-06T02:55:29.803Z,98738.41
2022-12-06T02:58:35.935Z,98736.22
2022-12-06T03:01:43.002Z,98735.66
2022-12-06T03:04:57.288Z,98743.50
2022-12-06T03:08:02.288Z,98730.72
2022-12-06T03:11:05.694Z,98736.09
2022-12-06T03:14:14.869Z,98734.47
2022-12-06T03:17:24.419Z,98727.69
2022-12-06T03:20:29.371Z,98724.19
2022-12-06T03:23:35.572Z,98721.97
2022-12-06T03:26:39.883Z,98716.56
2022-12-06T03:29:47.770Z,98724.66
2022-12-06T03:32:52.717Z,98723.03
2022-12-06T03:35:56.780Z,98719.81
2022-12-06T03:39:01.757Z,98719.00
2022-12-06T03:42:04.714Z,98714.44
2022-12-06T03:45:08.867Z,98708.72
2022-12-06T03:48:14.601Z,98717.41
2022-12-06T03:51:19.891Z,98720.91
2022-12-06T03:54:22.617Z,98716.63
2022-12-06T03:57:25.452Z,98706.66
2022-12-06T04:00:28.359Z,98712.06
2022-12-06T04:03:32.582Z,98704.22
2022-12-06T04:06:36.152Z,98710.72
2022-12-06T04:09:56.558Z,98703.44
2022-12-06T04:13:01.997Z,98701.53
2022-12-06T04:16:24.958Z,98705.84
2022-12-06T04:19:28.343Z,98695.56
2022-12-06T04:22:48.976Z,98696.97
2022-12-06T04:25:51.971Z,98687.00
2022-12-06T04:29:13.292Z,98682.72
2022-12-06T04:32:33.429Z,98680.03
2022-12-06T04:35:54.875Z,98680.81
2022-12-06T04:38:57.628Z,98679.19
2022-12-06T04:42:19.582Z,98686.47
2022-12-06T04:45:22.287Z,98685.25
2022-12-06T04:48:25.399Z,98677.59
2022-12-06T04:51:30.093Z,98670.72
2022-12-06T04:54:32.818Z,98677.25
2022-12-06T04:57:35.570Z,98675.81
2022-12-06T05:00:38.314Z,98676.00
2022-12-06T05:03:44.140Z,98669.66
2022-12-06T05:06:48.753Z,98663.94
2022-12-06T05:09:51.301Z,98662.88
2022-12-06T05:12:53.880Z,98665.59
2022-12-06T05:15:57.883Z,98669.59
2022-12-06T05:19:00.506Z,98663.59
2022-12-06T05:22:05.118Z,98673.06
2022-12-06T05:25:08.235Z,98674.63
2022-12-06T05:28:11.231Z,98671.06
2022-12-06T05:31:14.297Z,98679.28
2022-12-06T05:34:17.032Z,98672.81
2022-12-06T05:37:21.110Z,98668.75
2022-12-06T05:40:24.159Z,98672.78
2022-12-06T05:43:27.085Z,98671.63
2022-12-06T05:46:29.853Z,98666.50
2022-12-06T05:49:32.932Z,98670.81
2022-12-06T05:52:37.021Z,98669.44
2022-12-06T05:55:39.923Z,98668.34
2022-12-06T05:58:42.632Z,98659.63
2022-12-06T06:01:45.478Z,98669.16
2022-12-06T06:04:48.599Z,98664.00
2022-12-06T06:07:52.888Z,98671.81
2022-12-06T06:10:55.938Z,98672.53
2022-12-06T06:13:59.463Z,98670.03
2022-12-06T06:17:02.152Z,98674.59
2022-12-06T06:20:06.572Z,98673.53
2022-12-06T06:23:10.715Z,98670.03
2022-12-06T06:26:13.907Z,98667.66
2022-12-06T06:29:16.564Z,98669.28
2022-12-06T06:32:19.423Z,98674.69
2022-12-06T06:35:22.237Z,98679.88
2022-12-06T06:38:26.195Z,98678.50
2022-12-06T06:41:28.943Z,98678.72
2022-12-06T06:44:32.827Z,98660.03
2022-12-06T06:47:36.557Z,98659.47
2022-12-06T06:50:39.159Z,98660.03
2022-12-06T06:53:43.218Z,98662.75
2022-12-06T06:56:45.873Z,98668.63
2022-12-06T06:59:48.734Z,98672.28
2022-12-06T07:02:51.658Z,98673.44
2022-12-06T07:05:56.797Z,98675.03
2022-12-06T07:09:00.902Z,98676.09
2022-12-06T07:12:03.812Z,98684.72
2022-12-06T07:15:07.700Z,98676.53
2022-12-06T07:18:10.628Z,98681.06
2022-12-06T07:21:14.938Z,98683.22
2022-12-06T07:24:18.997Z,98680.22
2022-12-06T07:27:21.763Z,98677.56
2022-12-06T07:30:27.504Z,98678.59
2022-12-06T07:33:30.518Z,98685.56
2022-12-06T07:36:33.811Z,98685.63
2022-12-06T07:39:38.330Z,98676.19
2022-12-06T07:42:58.752Z,98681.81
2022-12-06T07:46:01.442Z,98681.25
2022-12-06T07:49:04.289Z,98675.78
2022-12-06T07:52:07.116Z,98671.91
2022-12-06T07:55:12.693Z,98674.81
2022-12-06T07:58:15.604Z,98677.72
2022-12-06T08:01:18.541Z,98680.56
2022-12-06T08:04:22.073Z,98677.84
2022-12-06T08:07:25.330Z,98684.09
2022-12-06T08:10:29.411Z,98680.28
2022-12-06T08:13:32.419Z,98677.50
2022-12-06T08:16:35.969Z,98678.53
2022-12-06T08:19:39.353Z,98676.47
2022-12-06T08:22:42.152Z,98677.72
2022-12-06T08:25:46.427Z,98678.16
2022-12-06T08:28:49.422Z,98679.13
2022-12-06T08:31:52.697Z,98681.38
2022-12-06T08:34:55.828Z,98675.66
2022-12-06T08:37:58.494Z,98683.00
2022-12-06T08:41:02.867Z,98679.13
2022-12-06T08:44:06.594Z,98685.72
2022-12-06T08:47:09.184Z,98694.00
2022-12-06T08:50:12.701Z,98686.66
2022-12-06T08:53:15.724Z,98687.03
2022-12-06T08:56:19.909Z,98683.00
2022-12-06T08:59:23.296Z,98683.38
2022-12-06T09:02:26.038Z,98693.28
2022-12-06T09:05:29.028Z,98692.97
2022-12-06T09:08:31.684Z,98694.69
2022-12-06T09:11:35.803Z,98695.84
2022-12-06T09:14:38.680Z,98698.63
2022-12-06T09:17:42.178Z,98703.38
2022-12-06T09:20:44.788Z,98696.78
2022-12-06T09:23:47.698Z,98700.53
2022-12-06T09:26:51.867Z,98705.53
2022-12-06T09:29:55.310Z,98702.66
2022-12-06T09:32:58.319Z,98698.69
2022-12-06T09:36:04.045Z,98702.63
2022-12-06T09:39:09.617Z,98706.34
2022-12-06T09:42:34.695Z,98705.94
2022-12-06T09:45:49.626Z,98699.03
2022-12-06T09:49:20.486Z,98700.28
2022-12-06T09:52:40.694Z,98699.72
2022-12-06T09:55:52.019Z,98702.50
2022-12-06T09:59:07.458Z,98699.50
2022-12-06T10:02:25.285Z,98703.63
2022-12-06T10:05:44.428Z,98694.94
2022-12-06T10:09:01.841Z,98689.91
2022-12-06T10:12:13.413Z,98687.00
2022-12-06T10:15:27.978Z,98695.69
2022-12-06T10:18:46.432Z,98703.44
2022-12-06T10:21:56.604Z,98692.84
2022-12-06T10:25:05.632Z,98688.22
2022-12-06T10:28:13.108Z,98690.78
2022-12-06T10:31:29.373Z,98692.53
2022-12-06T10:34:47.436Z,98688.72
2022-12-06T10:38:07.911Z,98688.88
2022-12-06T10:41:16.306Z,98680.78
2022-12-06T10:44:24.131Z,98673.25
2022-12-06T10:47:31.820Z,98672.16
2022-12-06T10:50:37.414Z,98688.13
2022-12-06T10:53:44.698Z,98668.91
2022-12-06T10:56:50.743Z,98664.47
2022-12-06T11:00:03.105Z,98666.44
2022-12-06T11:03:12.239Z,98669.50
2022-12-06T11:06:18.615Z,98664.75
2022-12-06T11:09:27.087Z,98664.50
2022-12-06T11:12:32.105Z,98659.88
2022-12-06T11:15:37.758Z,98661.75
2022-12-06T11:18:42.896Z,98648.19
2022-12-06T11:21:51.352Z,98657.06
2022-12-06T11:24:57.968Z,98656.22
2022-12-06T11:28:06.227Z,98660.63
2022-12-06T11:31:19.890Z,98661.81
2022-12-06T11:34:29.000Z,98663.78
2022-12-06T11:37:32.893Z,98668.41
2022-12-06T11:40:38.874Z,98662.84
2022-12-06T11:43:41.800Z,98667.59
2022-12-06T11:46:44.790Z,98675.47
2022-12-06T11:49:51.083Z,98670.91
2022-12-06T11:52:58.256Z,98668.22
2022-12-06T11:56:05.085Z,98664.72
2022-12-06T11:59:24.670Z,98666.19
2022-12-06T12:02:32.853Z,98672.25
2022-12-06T12:05:39.907Z,98676.69
2022-12-06T12:08:52.012Z,98665.75
2022-12-06T12:11:56.357Z,98666.31
2022-12-06T12:15:00.294Z,98666.31
2022-12-06T12:18:04.649Z,98667.53
2022-12-06T12:21:09.168Z,98664.41
2022-12-06T12:28:26.134Z,98659.13
2022-12-06T12:31:29.026Z,98655.78
2022-12-06T12:34:32.482Z,98657.50
2022-12-06T12:37:39.089Z,98656.19
2022-12-06T12:40:43.721Z,98652.50
2022-12-06T12:44:13.518Z,98647.59
2022-12-06T12:47:20.004Z,98655.56
2022-12-06T12:50:23.912Z,98649.00
2022-12-06T12:53:31.778Z,98663.22
2022-12-06T12:56:37.090Z,98652.38
2022-12-06T12:59:41.516Z,98652.19
2022-12-06T13:02:45.222Z,98646.88
2022-12-06T13:05:48.525Z,98642.56
2022-12-06T13:08:53.288Z,98636.50
2022-12-06T13:11:59.488Z,98644.94
2022-12-06T13:15:07.292Z,98639.63
2022-12-06T13:18:14.322Z,98643.38
2022-12-06T13:21:21.800Z,98643.56
2022-12-06T13:24:30.186Z,98649.19
2022-12-06T13:27:36.350Z,98642.81
2022-12-06T13:30:41.148Z,98636.06
2022-12-06T13:33:47.460Z,98639.91
2022-12-06T13:36:52.214Z,98634.16
2022-12-06T13:39:56.882Z,98637.81
2022-12-06T13:43:00.346Z,98640.31
2022-12-06T13:46:22.938Z,98636.09
2022-12-06T13:49:27.070Z,98631.03
2022-12-06T13:53:03.533Z,98626.56
2022-12-06T13:56:29.041Z,98635.16
2022-12-06T13:59:38.750Z,98637.06
2022-12-06T14:02:46.520Z,98640.66
2022-12-06T14:06:07.490Z,98639.75
2022-12-06T14:09:15.258Z,98645.78
2022-12-06T14:12:22.662Z,98649.78
2022-12-06T14:15:25.394Z,98647.13
2022-12-06T14:18:29.934Z,98653.41
2022-12-06T14:21:37.514Z,98658.78
2022-12-06T14:24:42.118Z,98654.72
2022-12-06T14:27:48.440Z,98648.50
2022-12-06T14:30:51.519Z,98657.63
2022-12-06T14:33:55.466Z,98650.00
2022-12-06T14:36:58.777Z,98642.53
2022-12-06T14:40:22.757Z,98653.34
2022-12-06T14:43:27.239Z,98650.97
2022-12-06T14:46:30.137Z,98649.91
2022-12-06T14:49:53.068Z,98650.06
2022-12-06T14:52:58.416Z,98655.03
2022-12-06T14:56:03.537Z,98656.56
2022-12-06T14:59:12.818Z,98657.47
2022-12-06T15:02:23.653Z,98650.00
2022-12-06T15:05:34.512Z,98649.63
2022-12-06T15:08:38.779Z,98651.16
2022-12-06T15:12:00.337Z,98642.22
2022-12-06T15:15:04.761Z,98642.81
2022-12-06T15:18:14.207Z,98646.53
2022-12-06T15:21:18.874Z,98645.03
2022-12-06T15:24:23.774Z,98639.94
2022-12-06T15:27:27.919Z,98640.63
2022-12-06T15:30:31.928Z,98640.06
2022-12-06T15:33:34.983Z,98634.25
2022-12-06T15:36:37.780Z,98637.09
2022-12-06T15:39:41.283Z,98636.25
2022-12-06T15:42:44.047Z,98631.03
2022-12-06T15:45:48.378Z,98634.75
2022-12-06T15:48:52.155Z,98629.91
2022-12-06T15:51:54.901Z,98628.81
2022-12-06T15:54:57.721Z,98634.19
2022-12-06T15:58:00.388Z,98635.78
2022-12-06T16:01:04.361Z,98632.59
2022-12-06T16:04:07.913Z,98640.84
2022-12-06T16:07:10.746Z,98645.53
2022-12-06T16:10:16.622Z,98644.75
2022-12-06T16:13:23.737Z,98660.28
2022-12-06T16:16:27.868Z,98659.84
2022-12-06T16:19:50.681Z,98656.97
2022-12-06T16:23:16.223Z,98649.09
2022-12-06T16:26:19.208Z,98653.41
2022-12-06T16:29:25.023Z,98656.47
2022-12-06T16:32:29.304Z,98653.47
2022-12-06T16:35:32.401Z,98661.41
2022-12-06T16:38:35.286Z,98658.53
2022-12-06T16:41:37.902Z,98656.00
2022-12-06T16:44:51.287Z,98648.56
2022-12-06T16:47:55.704Z,98652.06
2022-12-06T16:50:58.662Z,98656.91
2022-12-06T16:54:02.411Z,98651.47
2022-12-06T16:57:05.404Z,98643.19
2022-12-06T17:00:09.801Z,98647.94
2022-12-06T17:03:14.167Z,98658.31
2022-12-06T17:06:17.070Z,98653.66
2022-12-06T17:09:20.949Z,98658.97
2022-12-06T17:12:23.940Z,98655.91
2022-12-06T17:15:26.619Z,98665.03
2022-12-06T17:18:30.686Z,98652.84
2022-12-06T17:21:34.170Z,98660.16
2022-12-06T17:24:36.972Z,98657.13
2022-12-06T17:27:40.174Z,98662.25
2022-12-06T17:30:47.777Z,98657.38
2022-12-06T17:33:55.220Z,98646.78
2022-12-06T17:36:58.888Z,98656.66
2022-12-06T17:40:01.565Z,98645.94
2022-12-06T17:43:05.521Z,98638.56
2022-12-06T17:46:08.896Z,98642.94
2022-12-06T17:49:15.227Z,98648.38
2022-12-06T17:52:18.546Z,98648.59
2022-12-06T17:55:21.569Z,98645.28
2022-12-06T17:58:24.733Z,98649.00
2022-12-06T18:01:50.852Z,98656.00
2022-12-06T18:04:53.983Z,98656.53
2022-12-06T18:07:56.800Z,98644.88
2022-12-06T18:10:59.816Z,98651.97
2022-12-06T18:14:03.891Z,98654.16
2022-12-06T18:17:07.699Z,98654.16
2022-12-06T18:20:15.682Z,98653.81
2022-12-06T18:23:18.877Z,98655.63
2022-12-06T18:26:23.074Z,98673.59
2022-12-06T18:29:26.790Z,98658.03
2022-12-06T18:32:29.634Z,98663.84
2022-12-06T18:35:36.189Z,98670.81
2022-12-06T18:38:39.303Z,98669.50
2022-12-06T18:41:42.750Z,98666.22
2022-12-06T18:44:45.943Z,98669.84
2022-12-06T18:47:49.628Z,98667.34
2022-12-06T18:50:54.185Z,98668.75
2022-12-06T18:53:58.654Z,98666.25
2022-12-06T18:57:01.736Z,98663.16
2022-12-06T19:00:05.523Z,98666.97
2022-12-06T19:03:08.598Z,98663.69
2022-12-06T19:06:14.779Z,98660.19
2022-12-06T19:09:17.480Z,98658.25
2022-12-06T19:12:20.362Z,98656.56
2022-12-06T19:15:23.199Z,98661.94
2022-12-06T19:18:25.736Z,98661.19
2022-12-06T19:21:32.191Z,98655.78
2022-12-06T19:24:34.864Z,98662.78
2022-12-06T19:27:37.453Z,98661.78
2022-12-06T19:30:40.291Z,98660.84
2022-12-06T19:33:44.889Z,98655.72
2022-12-06T19:36:50.000Z,98665.28
2022-12-06T19:39:52.894Z,98661.03
2022-12-06T19:43:12.918Z,98659.06
2022-12-06T19:46:17.118Z,98665.06
2022-12-06T19:49:22.482Z,98652.41
2022-12-06T19:52:30.829Z,98658.53
2022-12-06T19:55:33.829Z,98653.09
2022-12-06T19:58:36.693Z,98655.88
2022-12-06T20:01:40.220Z,98661.84
2022-12-06T20:04:44.069Z,98663.44
2022-12-06T20:07:47.973Z,98665.34
2022-12-06T20:10:50.629Z,98661.78
2022-12-06T20:13:53.262Z,98662.59
2022-12-06T20:16:56.085Z,98655.09
2022-12-06T20:20:01.579Z,98657.53
2022-12-06T20:23:10.268Z,98652.44
2022-12-06T20:26:17.046Z,98647.25
2022-12-06T20:29:19.829Z,98651.16
2022-12-06T20:32:22.363Z,98657.63
2022-12-06T20:35:26.860Z,98662.97
2022-12-06T20:38:31.125Z,98657.81
2022-12-06T20:41:34.510Z,98667.34
2022-12-06T20:44:37.463Z,98657.91
2022-12-06T20:47:40.374Z,98657.91
2022-12-06T20:50:43.370Z,98654.91
2022-12-06T20:53:48.400Z,98670.69
2022-12-06T20:56:53.284Z,98670.53
2022-12-06T20:59:56.423Z,98667.63
2022-12-06T21:02:59.335Z,98666.09
2022-12-06T21:06:03.780Z,98666.13
2022-12-06T21:09:08.381Z,98668.81
2022-12-06T21:12:11.135Z,98660.38
2022-12-06T21:15:14.097Z,98651.72
2022-12-06T21:18:19.821Z,98659.44
2022-12-06T21:21:23.938Z,98657.22
2022-12-06T21:24:28.127Z,98654.63
2022-12-06T21:27:30.914Z,98650.59
2022-12-06T21:30:33.789Z,98657.91
2022-12-06T21:33:36.619Z,98658.06
2022-12-06T21:36:39.419Z,98659.50
2022-12-06T21:39:46.334Z,98655.38
2022-12-06T21:42:49.131Z,98659.00
2022-12-06T21:45:51.825Z,98661.13
2022-12-06T21:48:56.264Z,98664.38
2022-12-06T21:52:04.571Z,98665.44
2022-12-06T21:55:12.930Z,98666.69
2022-12-06T21:58:15.634Z,98664.47
2022-12-06T22:01:21.879Z,98664.69
2022-12-06T22:04:24.873Z,98675.72
2022-12-06T22:07:27.666Z,98670.81
2022-12-06T22:10:31.716Z,98673.44
2022-12-06T22:13:34.627Z,98671.75
2022-12-06T22:16:37.320Z,98673.13
2022-12-06T22:19:39.970Z,98673.69
2022-12-06T22:22:42.853Z,98677.72
2022-12-06T22:25:47.403Z,98675.81
2022-12-06T22:28:50.518Z,98678.84
2022-12-06T22:31:53.440Z,98672.19
2022-12-06T22:34:56.227Z,98670.28
2022-12-06T22:37:59.580Z,98664.88
2022-12-06T22:41:04.191Z,98667.53
2022-12-06T22:44:08.489Z,98668.03
2022-12-06T22:47:11.226Z,98661.03
2022-12-06T22:50:14.505Z,98660.19
2022-12-06T22:53:17.989Z,98658.84
2022-12-06T22:56:22.346Z,98660.31
2022-12-06T22:59:25.187Z,98662.59
2022-12-06T23:02:28.278Z,98658.69
2022-12-06T23:05:30.854Z,98670.25
2022-12-06T23:08:34.233Z,98668.16
2022-12-06T23:11:38.603Z,98660.94
2022-12-06T23:14:41.353Z,98668.81
2022-12-06T23:17:44.044Z,98661.06
2022-12-06T23:20:46.610Z,98665.50
2022-12-06T23:23:52.065Z,98670.47
2022-12-06T23:26:58.171Z,98660.28
2022-12-06T23:30:01.521Z,98659.47
2022-12-06T23:33:04.532Z,98653.91
2022-12-06T23:36:09.425Z,98658.38
2022-12-06T23:39:13.639Z,98652.09
2022-12-06T23:42:17.757Z,98658.53
2022-12-06T23:45:20.818Z,98658.91
2022-12-06T23:48:23.751Z,98655.19
2022-12-06T23:51:27.922Z,98652.28
2022-12-06T23:54:30.666Z,98653.25
2022-12-06T23:57:34.671Z,98654.91
